Terminal Aerodrome Forecast
Issued by NWS Cleveland, OH

Home | Current Version | Previous Version | Text Only | Print | Product List | Glossary On
Versions: 1 2 3 4 5 6 7 8 9 10 11 12 13 14 15 16 17 18 19 20 21 22 23 24 25 26 27 28 29 30 31 32
000
FTUS41 KCLE 020532 CCA
TAFCLE
TAF COR
KCLE 020532Z 0206/0312 03005KT P6SM SCT015 OVC050
      TEMPO 0206/0210 BKN015
     FM021000 04005KT P6SM BKN015
     FM021500 03010KT P6SM SCT250
     FM021900 03015G25KT P6SM SCT250
     FM030200 06006KT P6SM SKC=

USA.gov is the U.S. government's official web portal to all federal, state and local government web resources and services.